sensor_id;sensor_type;location;lat;lon;timestamp;temperature;humidity
31677;DHT22;18385;51.572;6.578;2024-03-08T00:00:41;6.80;58.90
31677;DHT22;18385;51.572;6.578;2024-03-08T00:03:08;6.70;58.90
31677;DHT22;18385;51.572;6.578;2024-03-08T00:05:36;6.80;59.00
31677;DHT22;18385;51.572;6.578;2024-03-08T00:08:04;6.80;58.90
31677;DHT22;18385;51.572;6.578;2024-03-08T00:10:30;6.70;58.90
31677;DHT22;18385;51.572;6.578;2024-03-08T00:12:56;6.70;58.90
31677;DHT22;18385;51.572;6.578;2024-03-08T00:15:23;6.70;59.00
31677;DHT22;18385;51.572;6.578;2024-03-08T00:17:49;6.70;59.00
31677;DHT22;18385;51.572;6.578;2024-03-08T00:20:15;6.70;59.00
31677;DHT22;18385;51.572;6.578;2024-03-08T00:22:43;6.70;58.90
31677;DHT22;18385;51.572;6.578;2024-03-08T00:25:09;6.80;58.90
31677;DHT22;18385;51.572;6.578;2024-03-08T00:27:35;6.70;58.80
31677;DHT22;18385;51.572;6.578;2024-03-08T00:30:01;6.70;58.80
31677;DHT22;18385;51.572;6.578;2024-03-08T00:32:27;6.70;59.00
31677;DHT22;18385;51.572;6.578;2024-03-08T00:34:56;6.70;59.00
31677;DHT22;18385;51.572;6.578;2024-03-08T00:37:22;6.70;59.00
31677;DHT22;18385;51.572;6.578;2024-03-08T00:39:48;6.70;59.00
31677;DHT22;18385;51.572;6.578;2024-03-08T00:42:18;6.70;59.00
31677;DHT22;18385;51.572;6.578;2024-03-08T00:44:44;6.70;59.00
31677;DHT22;18385;51.572;6.578;2024-03-08T00:47:10;6.70;59.00
31677;DHT22;18385;51.572;6.578;2024-03-08T00:49:36;6.60;58.90
31677;DHT22;18385;51.572;6.578;2024-03-08T00:52:05;6.60;58.90
31677;DHT22;18385;51.572;6.578;2024-03-08T00:54:34;6.60;58.90
31677;DHT22;18385;51.572;6.578;2024-03-08T00:57:01;6.60;58.90
31677;DHT22;18385;51.572;6.578;2024-03-08T00:59:29;6.60;59.00
31677;DHT22;18385;51.572;6.578;2024-03-08T01:01:54;6.50;59.00
31677;DHT22;18385;51.572;6.578;2024-03-08T01:04:20;6.50;59.00
31677;DHT22;18385;51.572;6.578;2024-03-08T01:06:47;6.50;59.00
31677;DHT22;18385;51.572;6.578;2024-03-08T01:09:13;6.50;59.70
31677;DHT22;18385;51.572;6.578;2024-03-08T01:11:39;6.40;59.10
31677;DHT22;18385;51.572;6.578;2024-03-08T01:14:05;6.50;59.20
31677;DHT22;18385;51.572;6.578;2024-03-08T01:16:30;6.50;59.10
31677;DHT22;18385;51.572;6.578;2024-03-08T01:18:58;6.40;59.00
31677;DHT22;18385;51.572;6.578;2024-03-08T01:21:24;6.40;59.00
31677;DHT22;18385;51.572;6.578;2024-03-08T01:23:49;6.40;59.00
31677;DHT22;18385;51.572;6.578;2024-03-08T01:26:15;6.40;59.10
31677;DHT22;18385;51.572;6.578;2024-03-08T01:28:41;6.30;59.00
31677;DHT22;18385;51.572;6.578;2024-03-08T01:31:07;6.30;59.10
31677;DHT22;18385;51.572;6.578;2024-03-08T01:33:33;6.30;59.30
31677;DHT22;18385;51.572;6.578;2024-03-08T01:35:58;6.30;59.30
31677;DHT22;18385;51.572;6.578;2024-03-08T01:38:24;6.30;59.20
31677;DHT22;18385;51.572;6.578;2024-03-08T01:40:50;6.30;59.20
31677;DHT22;18385;51.572;6.578;2024-03-08T01:43:26;6.20;59.30
31677;DHT22;18385;51.572;6.578;2024-03-08T01:45:55;6.20;59.20
31677;DHT22;18385;51.572;6.578;2024-03-08T01:48:23;6.20;59.20
31677;DHT22;18385;51.572;6.578;2024-03-08T01:50:50;6.10;59.20
31677;DHT22;18385;51.572;6.578;2024-03-08T01:53:18;6.10;59.30
31677;DHT22;18385;51.572;6.578;2024-03-08T01:55:48;6.10;59.40
31677;DHT22;18385;51.572;6.578;2024-03-08T01:58:15;6.20;59.40
31677;DHT22;18385;51.572;6.578;2024-03-08T02:00:46;6.10;59.30
31677;DHT22;18385;51.572;6.578;2024-03-08T02:03:15;6.10;59.30
31677;DHT22;18385;51.572;6.578;2024-03-08T02:05:41;6.10;59.40
31677;DHT22;18385;51.572;6.578;2024-03-08T02:08:07;6.10;59.40
31677;DHT22;18385;51.572;6.578;2024-03-08T02:10:38;6.10;59.40
31677;DHT22;18385;51.572;6.578;2024-03-08T02:13:05;6.10;59.40
31677;DHT22;18385;51.572;6.578;2024-03-08T02:18:16;6.10;59.40
31677;DHT22;18385;51.572;6.578;2024-03-08T02:20:43;6.00;59.40
31677;DHT22;18385;51.572;6.578;2024-03-08T02:23:08;6.10;59.40
31677;DHT22;18385;51.572;6.578;2024-03-08T02:25:35;6.00;59.30
31677;DHT22;18385;51.572;6.578;2024-03-08T02:28:01;6.00;59.30
31677;DHT22;18385;51.572;6.578;2024-03-08T02:30:26;6.00;59.40
31677;DHT22;18385;51.572;6.578;2024-03-08T02:32:55;5.90;59.40
31677;DHT22;18385;51.572;6.578;2024-03-08T02:35:21;5.90;59.40
31677;DHT22;18385;51.572;6.578;2024-03-08T02:37:47;5.90;59.40
31677;DHT22;18385;51.572;6.578;2024-03-08T02:40:13;5.90;59.50
31677;DHT22;18385;51.572;6.578;2024-03-08T02:42:39;5.80;59.50
31677;DHT22;18385;51.572;6.578;2024-03-08T02:45:05;5.80;59.40
31677;DHT22;18385;51.572;6.578;2024-03-08T02:47:31;5.80;59.40
31677;DHT22;18385;51.572;6.578;2024-03-08T02:49:57;5.80;59.50
31677;DHT22;18385;51.572;6.578;2024-03-08T02:52:23;5.80;59.60
31677;DHT22;18385;51.572;6.578;2024-03-08T02:54:49;5.80;59.60
31677;DHT22;18385;51.572;6.578;2024-03-08T02:57:15;5.80;59.50
31677;DHT22;18385;51.572;6.578;2024-03-08T02:59:41;5.80;59.50
31677;DHT22;18385;51.572;6.578;2024-03-08T03:02:07;5.80;59.50
31677;DHT22;18385;51.572;6.578;2024-03-08T03:04:33;5.70;59.50
31677;DHT22;18385;51.572;6.578;2024-03-08T03:07:00;5.70;59.60
31677;DHT22;18385;51.572;6.578;2024-03-08T03:09:26;5.70;59.60
31677;DHT22;18385;51.572;6.578;2024-03-08T03:11:54;5.70;59.60
31677;DHT22;18385;51.572;6.578;2024-03-08T03:14:23;5.70;59.60
31677;DHT22;18385;51.572;6.578;2024-03-08T03:16:49;5.70;59.60
31677;DHT22;18385;51.572;6.578;2024-03-08T03:19:15;5.70;59.60
31677;DHT22;18385;51.572;6.578;2024-03-08T03:21:41;5.70;59.60
31677;DHT22;18385;51.572;6.578;2024-03-08T03:24:09;5.70;59.60
31677;DHT22;18385;51.572;6.578;2024-03-08T03:26:40;5.70;59.60
31677;DHT22;18385;51.572;6.578;2024-03-08T03:29:07;5.70;59.70
31677;DHT22;18385;51.572;6.578;2024-03-08T03:31:34;5.60;59.70
31677;DHT22;18385;51.572;6.578;2024-03-08T03:34:00;5.60;59.60
31677;DHT22;18385;51.572;6.578;2024-03-08T03:36:30;5.60;59.60
31677;DHT22;18385;51.572;6.578;2024-03-08T03:38:56;5.50;59.70
31677;DHT22;18385;51.572;6.578;2024-03-08T03:41:36;5.50;59.70
31677;DHT22;18385;51.572;6.578;2024-03-08T03:44:02;5.50;59.70
31677;DHT22;18385;51.572;6.578;2024-03-08T03:46:28;5.50;59.80
31677;DHT22;18385;51.572;6.578;2024-03-08T03:48:56;5.50;59.90
31677;DHT22;18385;51.572;6.578;2024-03-08T03:51:22;5.50;59.80
31677;DHT22;18385;51.572;6.578;2024-03-08T03:53:48;5.50;59.80
31677;DHT22;18385;51.572;6.578;2024-03-08T03:56:14;5.40;59.80
31677;DHT22;18385;51.572;6.578;2024-03-08T03:58:39;5.40;59.80
31677;DHT22;18385;51.572;6.578;2024-03-08T04:01:05;5.40;59.80
31677;DHT22;18385;51.572;6.578;2024-03-08T04:03:31;5.40;59.80
31677;DHT22;18385;51.572;6.578;2024-03-08T04:05:57;5.30;59.80
31677;DHT22;18385;51.572;6.578;2024-03-08T04:08:23;5.30;59.80
31677;DHT22;18385;51.572;6.578;2024-03-08T04:10:51;5.20;59.80
31677;DHT22;18385;51.572;6.578;2024-03-08T04:13:17;5.20;59.90
31677;DHT22;18385;51.572;6.578;2024-03-08T04:15:43;5.20;59.80
31677;DHT22;18385;51.572;6.578;2024-03-08T04:18:13;5.20;59.80
31677;DHT22;18385;51.572;6.578;2024-03-08T04:20:39;5.20;59.90
31677;DHT22;18385;51.572;6.578;2024-03-08T04:23:06;5.10;59.80
31677;DHT22;18385;51.572;6.578;2024-03-08T04:25:31;5.10;59.90
31677;DHT22;18385;51.572;6.578;2024-03-08T04:27:57;5.10;60.00
31677;DHT22;18385;51.572;6.578;2024-03-08T04:30:23;5.00;60.00
31677;DHT22;18385;51.572;6.578;2024-03-08T04:32:49;5.00;60.00
31677;DHT22;18385;51.572;6.578;2024-03-08T04:35:15;5.00;60.00
31677;DHT22;18385;51.572;6.578;2024-03-08T04:37:41;5.00;60.00
31677;DHT22;18385;51.572;6.578;2024-03-08T04:40:07;5.00;60.00
31677;DHT22;18385;51.572;6.578;2024-03-08T04:42:33;4.90;60.00
31677;DHT22;18385;51.572;6.578;2024-03-08T04:44:59;4.90;60.00
31677;DHT22;18385;51.572;6.578;2024-03-08T04:47:25;4.80;60.10
31677;DHT22;18385;51.572;6.578;2024-03-08T04:49:51;4.80;60.10
31677;DHT22;18385;51.572;6.578;2024-03-08T04:52:17;4.80;60.00
31677;DHT22;18385;51.572;6.578;2024-03-08T04:54:43;4.80;60.20
31677;DHT22;18385;51.572;6.578;2024-03-08T04:57:10;4.80;60.20
31677;DHT22;18385;51.572;6.578;2024-03-08T04:59:36;4.70;60.20
31677;DHT22;18385;51.572;6.578;2024-03-08T05:02:02;4.70;60.20
31677;DHT22;18385;51.572;6.578;2024-03-08T05:04:28;4.70;60.30
31677;DHT22;18385;51.572;6.578;2024-03-08T05:06:54;4.70;60.30
31677;DHT22;18385;51.572;6.578;2024-03-08T05:09:20;4.70;60.30
31677;DHT22;18385;51.572;6.578;2024-03-08T05:11:46;4.70;60.30
31677;DHT22;18385;51.572;6.578;2024-03-08T05:14:14;4.60;60.30
31677;DHT22;18385;51.572;6.578;2024-03-08T05:16:43;4.70;60.40
31677;DHT22;18385;51.572;6.578;2024-03-08T05:19:11;4.60;60.40
31677;DHT22;18385;51.572;6.578;2024-03-08T05:21:36;4.60;60.40
31677;DHT22;18385;51.572;6.578;2024-03-08T05:24:02;4.60;60.40
31677;DHT22;18385;51.572;6.578;2024-03-08T05:26:29;4.60;60.50
31677;DHT22;18385;51.572;6.578;2024-03-08T05:28:55;4.60;60.50
31677;DHT22;18385;51.572;6.578;2024-03-08T05:31:22;4.60;60.50
31677;DHT22;18385;51.572;6.578;2024-03-08T05:33:48;4.60;60.50
31677;DHT22;18385;51.572;6.578;2024-03-08T05:36:15;4.60;60.50
31677;DHT22;18385;51.572;6.578;2024-03-08T05:38:43;4.60;60.50
31677;DHT22;18385;51.572;6.578;2024-03-08T05:41:09;4.60;60.50
31677;DHT22;18385;51.572;6.578;2024-03-08T05:43:35;4.60;60.50
31677;DHT22;18385;51.572;6.578;2024-03-08T05:46:01;4.60;60.50
31677;DHT22;18385;51.572;6.578;2024-03-08T05:48:26;4.60;60.60
31677;DHT22;18385;51.572;6.578;2024-03-08T05:50:53;4.50;60.70
31677;DHT22;18385;51.572;6.578;2024-03-08T05:53:19;4.50;60.70
31677;DHT22;18385;51.572;6.578;2024-03-08T05:55:44;4.50;60.70
31677;DHT22;18385;51.572;6.578;2024-03-08T05:58:10;4.50;60.60
31677;DHT22;18385;51.572;6.578;2024-03-08T06:00:37;4.50;60.70
31677;DHT22;18385;51.572;6.578;2024-03-08T06:03:02;4.50;60.80
31677;DHT22;18385;51.572;6.578;2024-03-08T06:05:28;4.50;60.80
31677;DHT22;18385;51.572;6.578;2024-03-08T06:07:54;4.50;60.80
31677;DHT22;18385;51.572;6.578;2024-03-08T06:10:20;4.50;60.70
31677;DHT22;18385;51.572;6.578;2024-03-08T06:12:46;4.50;60.70
31677;DHT22;18385;51.572;6.578;2024-03-08T06:15:11;4.50;60.80
31677;DHT22;18385;51.572;6.578;2024-03-08T06:17:40;4.50;60.90
31677;DHT22;18385;51.572;6.578;2024-03-08T06:20:07;4.50;60.80
31677;DHT22;18385;51.572;6.578;2024-03-08T06:22:39;4.50;60.80
31677;DHT22;18385;51.572;6.578;2024-03-08T06:25:13;4.60;60.80
31677;DHT22;18385;51.572;6.578;2024-03-08T06:27:42;4.60;60.90
31677;DHT22;18385;51.572;6.578;2024-03-08T06:30:08;4.60;60.90
31677;DHT22;18385;51.572;6.578;2024-03-08T06:32:37;4.70;60.90
31677;DHT22;18385;51.572;6.578;2024-03-08T06:35:04;4.70;60.90
31677;DHT22;18385;51.572;6.578;2024-03-08T06:37:33;4.70;60.90
31677;DHT22;18385;51.572;6.578;2024-03-08T06:40:00;4.70;60.90
31677;DHT22;18385;51.572;6.578;2024-03-08T06:42:29;4.80;60.90
31677;DHT22;18385;51.572;6.578;2024-03-08T06:44:59;4.90;60.90
31677;DHT22;18385;51.572;6.578;2024-03-08T06:47:31;4.90;60.90
31677;DHT22;18385;51.572;6.578;2024-03-08T06:50:00;4.90;60.80
31677;DHT22;18385;51.572;6.578;2024-03-08T06:52:25;5.00;60.80
31677;DHT22;18385;51.572;6.578;2024-03-08T06:54:51;5.00;60.70
31677;DHT22;18385;51.572;6.578;2024-03-08T06:57:18;5.10;60.80
31677;DHT22;18385;51.572;6.578;2024-03-08T06:59:45;5.20;60.80
31677;DHT22;18385;51.572;6.578;2024-03-08T07:02:11;5.20;60.80
31677;DHT22;18385;51.572;6.578;2024-03-08T07:04:37;5.30;60.70
31677;DHT22;18385;51.572;6.578;2024-03-08T07:07:06;5.30;60.70
31677;DHT22;18385;51.572;6.578;2024-03-08T07:09:35;5.40;60.60
31677;DHT22;18385;51.572;6.578;2024-03-08T07:12:01;5.40;60.60
31677;DHT22;18385;51.572;6.578;2024-03-08T07:14:27;5.50;60.70
31677;DHT22;18385;51.572;6.578;2024-03-08T07:16:53;5.50;60.60
31677;DHT22;18385;51.572;6.578;2024-03-08T07:19:18;5.60;60.60
31677;DHT22;18385;51.572;6.578;2024-03-08T07:21:45;5.70;60.60
31677;DHT22;18385;51.572;6.578;2024-03-08T07:24:11;5.70;60.60
31677;DHT22;18385;51.572;6.578;2024-03-08T07:26:43;5.80;61.30
31677;DHT22;18385;51.572;6.578;2024-03-08T07:29:09;5.80;60.40
31677;DHT22;18385;51.572;6.578;2024-03-08T07:31:35;5.90;60.50
31677;DHT22;18385;51.572;6.578;2024-03-08T07:34:21;5.90;60.40
31677;DHT22;18385;51.572;6.578;2024-03-08T07:36:46;6.00;60.40
31677;DHT22;18385;51.572;6.578;2024-03-08T07:39:12;6.10;60.40
31677;DHT22;18385;51.572;6.578;2024-03-08T07:41:39;6.20;60.30
31677;DHT22;18385;51.572;6.578;2024-03-08T07:44:07;6.30;60.30
31677;DHT22;18385;51.572;6.578;2024-03-08T07:46:33;6.30;60.30
31677;DHT22;18385;51.572;6.578;2024-03-08T07:48:59;6.40;60.20
31677;DHT22;18385;51.572;6.578;2024-03-08T07:51:25;6.50;60.10
31677;DHT22;18385;51.572;6.578;2024-03-08T07:53:51;6.60;60.10
31677;DHT22;18385;51.572;6.578;2024-03-08T07:56:17;6.60;60.00
31677;DHT22;18385;51.572;6.578;2024-03-08T07:58:44;6.70;60.00
31677;DHT22;18385;51.572;6.578;2024-03-08T08:01:19;6.80;60.90
31677;DHT22;18385;51.572;6.578;2024-03-08T08:03:47;6.90;60.10
31677;DHT22;18385;51.572;6.578;2024-03-08T08:06:15;7.00;60.00
31677;DHT22;18385;51.572;6.578;2024-03-08T08:08:44;7.10;60.00
31677;DHT22;18385;51.572;6.578;2024-03-08T08:11:10;7.20;60.00
31677;DHT22;18385;51.572;6.578;2024-03-08T08:13:41;7.20;59.90
31677;DHT22;18385;51.572;6.578;2024-03-08T08:16:09;7.30;59.90
31677;DHT22;18385;51.572;6.578;2024-03-08T08:18:35;7.40;59.90
31677;DHT22;18385;51.572;6.578;2024-03-08T08:21:02;7.50;59.90
31677;DHT22;18385;51.572;6.578;2024-03-08T08:23:28;7.60;59.80
31677;DHT22;18385;51.572;6.578;2024-03-08T08:25:55;7.70;59.80
31677;DHT22;18385;51.572;6.578;2024-03-08T08:28:21;7.80;59.70
31677;DHT22;18385;51.572;6.578;2024-03-08T08:30:46;7.80;59.60
31677;DHT22;18385;51.572;6.578;2024-03-08T08:33:12;7.90;59.60
31677;DHT22;18385;51.572;6.578;2024-03-08T08:35:38;8.00;59.50
31677;DHT22;18385;51.572;6.578;2024-03-08T08:38:07;8.10;59.40
31677;DHT22;18385;51.572;6.578;2024-03-08T08:40:36;8.10;59.40
31677;DHT22;18385;51.572;6.578;2024-03-08T08:43:02;8.20;59.40
31677;DHT22;18385;51.572;6.578;2024-03-08T08:45:31;8.30;59.40
31677;DHT22;18385;51.572;6.578;2024-03-08T08:47:57;8.30;59.30
31677;DHT22;18385;51.572;6.578;2024-03-08T08:50:25;8.50;59.30
31677;DHT22;18385;51.572;6.578;2024-03-08T08:52:52;8.60;59.20
31677;DHT22;18385;51.572;6.578;2024-03-08T08:55:18;8.70;59.20
31677;DHT22;18385;51.572;6.578;2024-03-08T08:57:49;8.80;59.20
31677;DHT22;18385;51.572;6.578;2024-03-08T09:00:18;8.90;59.10
31677;DHT22;18385;51.572;6.578;2024-03-08T09:02:45;9.00;59.10
31677;DHT22;18385;51.572;6.578;2024-03-08T09:05:11;9.10;59.00
31677;DHT22;18385;51.572;6.578;2024-03-08T09:07:37;9.20;58.90
31677;DHT22;18385;51.572;6.578;2024-03-08T09:10:03;9.30;58.90
31677;DHT22;18385;51.572;6.578;2024-03-08T09:12:29;9.40;58.80
31677;DHT22;18385;51.572;6.578;2024-03-08T09:14:55;9.40;58.70
31677;DHT22;18385;51.572;6.578;2024-03-08T09:17:20;9.50;58.60
31677;DHT22;18385;51.572;6.578;2024-03-08T09:19:47;9.70;58.60
31677;DHT22;18385;51.572;6.578;2024-03-08T09:22:13;9.70;58.40
31677;DHT22;18385;51.572;6.578;2024-03-08T09:24:39;9.70;58.40
31677;DHT22;18385;51.572;6.578;2024-03-08T09:27:05;9.90;58.40
31677;DHT22;18385;51.572;6.578;2024-03-08T09:29:31;9.90;58.30
31677;DHT22;18385;51.572;6.578;2024-03-08T09:31:56;10.00;58.30
31677;DHT22;18385;51.572;6.578;2024-03-08T09:34:22;10.10;58.20
31677;DHT22;18385;51.572;6.578;2024-03-08T09:36:49;10.10;58.10
31677;DHT22;18385;51.572;6.578;2024-03-08T09:39:16;10.20;58.00
31677;DHT22;18385;51.572;6.578;2024-03-08T09:41:45;10.30;57.90
31677;DHT22;18385;51.572;6.578;2024-03-08T09:44:17;10.40;57.80
31677;DHT22;18385;51.572;6.578;2024-03-08T09:46:45;10.40;57.80
31677;DHT22;18385;51.572;6.578;2024-03-08T09:49:13;10.50;57.80
31677;DHT22;18385;51.572;6.578;2024-03-08T09:51:38;10.50;57.70
31677;DHT22;18385;51.572;6.578;2024-03-08T09:54:07;10.60;57.70
31677;DHT22;18385;51.572;6.578;2024-03-08T09:56:35;10.70;57.60
31677;DHT22;18385;51.572;6.578;2024-03-08T09:59:01;10.80;57.40
31677;DHT22;18385;51.572;6.578;2024-03-08T10:01:46;10.90;57.50
31677;DHT22;18385;51.572;6.578;2024-03-08T10:04:12;10.90;57.40
31677;DHT22;18385;51.572;6.578;2024-03-08T10:06:39;11.00;57.30
31677;DHT22;18385;51.572;6.578;2024-03-08T10:09:06;11.10;57.10
31677;DHT22;18385;51.572;6.578;2024-03-08T10:11:33;11.10;57.10
31677;DHT22;18385;51.572;6.578;2024-03-08T10:14:00;11.10;57.00
31677;DHT22;18385;51.572;6.578;2024-03-08T10:16:29;11.10;56.90
31677;DHT22;18385;51.572;6.578;2024-03-08T10:18:58;11.20;56.90
31677;DHT22;18385;51.572;6.578;2024-03-08T10:21:26;11.20;56.80
31677;DHT22;18385;51.572;6.578;2024-03-08T10:23:51;11.30;56.70
31677;DHT22;18385;51.572;6.578;2024-03-08T10:26:18;11.30;56.60
31677;DHT22;18385;51.572;6.578;2024-03-08T10:28:46;11.30;56.60
31677;DHT22;18385;51.572;6.578;2024-03-08T10:31:14;11.40;56.40
31677;DHT22;18385;51.572;6.578;2024-03-08T10:33:40;11.40;56.20
31677;DHT22;18385;51.572;6.578;2024-03-08T10:36:11;11.40;56.20
31677;DHT22;18385;51.572;6.578;2024-03-08T10:38:38;11.40;56.20
31677;DHT22;18385;51.572;6.578;2024-03-08T10:41:06;11.50;56.00
31677;DHT22;18385;51.572;6.578;2024-03-08T10:46:34;11.60;55.90
31677;DHT22;18385;51.572;6.578;2024-03-08T10:49:10;11.70;55.80
31677;DHT22;18385;51.572;6.578;2024-03-08T10:51:38;11.70;55.70
31677;DHT22;18385;51.572;6.578;2024-03-08T10:54:08;11.80;55.70
31677;DHT22;18385;51.572;6.578;2024-03-08T10:56:35;11.80;55.50
31677;DHT22;18385;51.572;6.578;2024-03-08T10:59:01;11.90;55.40
31677;DHT22;18385;51.572;6.578;2024-03-08T11:01:29;11.90;55.30
31677;DHT22;18385;51.572;6.578;2024-03-08T11:03:55;12.00;55.20
31677;DHT22;18385;51.572;6.578;2024-03-08T11:06:43;12.10;55.00
31677;DHT22;18385;51.572;6.578;2024-03-08T11:09:35;12.20;55.00
31677;DHT22;18385;51.572;6.578;2024-03-08T11:12:24;12.20;54.80
31677;DHT22;18385;51.572;6.578;2024-03-08T11:15:00;12.30;54.80
31677;DHT22;18385;51.572;6.578;2024-03-08T11:19:58;12.40;54.60
31677;DHT22;18385;51.572;6.578;2024-03-08T11:22:32;12.50;54.30
31677;DHT22;18385;51.572;6.578;2024-03-08T11:25:05;12.50;54.30
31677;DHT22;18385;51.572;6.578;2024-03-08T11:27:38;12.50;54.30
31677;DHT22;18385;51.572;6.578;2024-03-08T11:30:06;12.50;54.20
31677;DHT22;18385;51.572;6.578;2024-03-08T11:32:38;12.60;54.20
31677;DHT22;18385;51.572;6.578;2024-03-08T11:35:20;12.60;53.90
31677;DHT22;18385;51.572;6.578;2024-03-08T11:37:46;12.80;54.00
31677;DHT22;18385;51.572;6.578;2024-03-08T11:40:14;12.80;53.80
31677;DHT22;18385;51.572;6.578;2024-03-08T11:42:44;12.90;53.80
31677;DHT22;18385;51.572;6.578;2024-03-08T11:45:12;13.00;53.70
31677;DHT22;18385;51.572;6.578;2024-03-08T11:47:42;13.10;53.50
31677;DHT22;18385;51.572;6.578;2024-03-08T11:50:10;13.10;53.40
31677;DHT22;18385;51.572;6.578;2024-03-08T11:52:36;13.10;53.20
31677;DHT22;18385;51.572;6.578;2024-03-08T11:55:03;13.10;53.20
31677;DHT22;18385;51.572;6.578;2024-03-08T11:57:31;13.20;53.20
31677;DHT22;18385;51.572;6.578;2024-03-08T11:59:58;13.20;53.10
31677;DHT22;18385;51.572;6.578;2024-03-08T12:02:34;13.30;52.80
31677;DHT22;18385;51.572;6.578;2024-03-08T12:05:04;13.30;52.80
31677;DHT22;18385;51.572;6.578;2024-03-08T12:07:31;13.40;52.80
31677;DHT22;18385;51.572;6.578;2024-03-08T12:12:49;13.50;52.50
31677;DHT22;18385;51.572;6.578;2024-03-08T12:15:18;13.60;52.40
31677;DHT22;18385;51.572;6.578;2024-03-08T12:17:45;13.70;52.20
31677;DHT22;18385;51.572;6.578;2024-03-08T12:20:20;13.70;52.20
31677;DHT22;18385;51.572;6.578;2024-03-08T12:22:50;13.80;52.00
31677;DHT22;18385;51.572;6.578;2024-03-08T12:25:22;13.90;52.00
31677;DHT22;18385;51.572;6.578;2024-03-08T12:27:48;14.00;51.90
31677;DHT22;18385;51.572;6.578;2024-03-08T12:30:24;14.10;51.60
31677;DHT22;18385;51.572;6.578;2024-03-08T12:33:00;14.10;51.60
31677;DHT22;18385;51.572;6.578;2024-03-08T12:35:30;14.20;51.40
31677;DHT22;18385;51.572;6.578;2024-03-08T12:37:58;14.20;51.30
31677;DHT22;18385;51.572;6.578;2024-03-08T12:40:32;14.30;51.40
31677;DHT22;18385;51.572;6.578;2024-03-08T12:43:00;14.40;51.10
31677;DHT22;18385;51.572;6.578;2024-03-08T12:45:26;14.50;51.70
31677;DHT22;18385;51.572;6.578;2024-03-08T12:47:53;14.50;50.70
31677;DHT22;18385;51.572;6.578;2024-03-08T12:50:22;14.50;50.70
31677;DHT22;18385;51.572;6.578;2024-03-08T12:52:50;14.60;50.80
31677;DHT22;18385;51.572;6.578;2024-03-08T12:55:18;14.70;50.60
31677;DHT22;18385;51.572;6.578;2024-03-08T12:57:44;14.70;50.50
31677;DHT22;18385;51.572;6.578;2024-03-08T13:00:11;14.80;50.30
31677;DHT22;18385;51.572;6.578;2024-03-08T13:02:45;14.90;50.20
31677;DHT22;18385;51.572;6.578;2024-03-08T13:05:11;14.90;50.20
31677;DHT22;18385;51.572;6.578;2024-03-08T13:07:40;15.10;50.10
31677;DHT22;18385;51.572;6.578;2024-03-08T13:10:06;15.20;49.90
31677;DHT22;18385;51.572;6.578;2024-03-08T13:12:33;15.20;49.80
31677;DHT22;18385;51.572;6.578;2024-03-08T13:15:01;15.40;49.70
31677;DHT22;18385;51.572;6.578;2024-03-08T13:17:27;15.50;49.40
31677;DHT22;18385;51.572;6.578;2024-03-08T13:19:54;15.50;49.40
31677;DHT22;18385;51.572;6.578;2024-03-08T13:22:22;15.60;49.20
31677;DHT22;18385;51.572;6.578;2024-03-08T13:24:50;15.70;49.20
31677;DHT22;18385;51.572;6.578;2024-03-08T13:27:17;15.80;49.20
31677;DHT22;18385;51.572;6.578;2024-03-08T13:29:50;15.90;49.00
31677;DHT22;18385;51.572;6.578;2024-03-08T13:32:16;16.00;48.80
31677;DHT22;18385;51.572;6.578;2024-03-08T13:34:46;16.00;48.60
31677;DHT22;18385;51.572;6.578;2024-03-08T13:37:13;16.20;48.70
31677;DHT22;18385;51.572;6.578;2024-03-08T13:39:41;16.30;48.50
31677;DHT22;18385;51.572;6.578;2024-03-08T13:42:12;16.30;48.20
31677;DHT22;18385;51.572;6.578;2024-03-08T13:44:48;16.70;48.90
31677;DHT22;18385;51.572;6.578;2024-03-08T13:47:15;17.20;49.30
31677;DHT22;18385;51.572;6.578;2024-03-08T13:49:42;17.80;49.60
31677;DHT22;18385;51.572;6.578;2024-03-08T13:52:09;18.20;49.30
31677;DHT22;18385;51.572;6.578;2024-03-08T13:54:36;18.60;49.80
31677;DHT22;18385;51.572;6.578;2024-03-08T13:57:02;18.90;48.50
31677;DHT22;18385;51.572;6.578;2024-03-08T13:59:33;19.10;48.40
31677;DHT22;18385;51.572;6.578;2024-03-08T14:02:01;19.40;48.00
31677;DHT22;18385;51.572;6.578;2024-03-08T14:04:28;19.70;48.00
31677;DHT22;18385;51.572;6.578;2024-03-08T14:06:54;20.00;47.50
31677;DHT22;18385;51.572;6.578;2024-03-08T14:09:26;20.30;47.20
31677;DHT22;18385;51.572;6.578;2024-03-08T14:11:55;20.60;47.10
31677;DHT22;18385;51.572;6.578;2024-03-08T14:14:21;21.00;46.80
31677;DHT22;18385;51.572;6.578;2024-03-08T14:16:49;21.30;46.40
31677;DHT22;18385;51.572;6.578;2024-03-08T14:19:19;21.60;45.70
31677;DHT22;18385;51.572;6.578;2024-03-08T14:21:44;21.50;45.10
31677;DHT22;18385;51.572;6.578;2024-03-08T14:24:10;21.50;44.70
31677;DHT22;18385;51.572;6.578;2024-03-08T14:26:36;21.70;45.20
31677;DHT22;18385;51.572;6.578;2024-03-08T14:29:04;22.20;45.10
31677;DHT22;18385;51.572;6.578;2024-03-08T14:31:31;22.50;44.40
31677;DHT22;18385;51.572;6.578;2024-03-08T14:33:56;22.80;44.10
31677;DHT22;18385;51.572;6.578;2024-03-08T14:36:24;23.00;43.60
31677;DHT22;18385;51.572;6.578;2024-03-08T14:38:51;23.20;43.20
31677;DHT22;18385;51.572;6.578;2024-03-08T14:41:18;23.50;43.80
31677;DHT22;18385;51.572;6.578;2024-03-08T14:43:44;23.80;43.20
31677;DHT22;18385;51.572;6.578;2024-03-08T14:46:18;23.70;41.60
31677;DHT22;18385;51.572;6.578;2024-03-08T14:48:55;23.80;41.40
31677;DHT22;18385;51.572;6.578;2024-03-08T14:51:22;23.80;40.70
31677;DHT22;18385;51.572;6.578;2024-03-08T14:53:52;23.60;40.50
31677;DHT22;18385;51.572;6.578;2024-03-08T14:56:20;23.50;40.30
31677;DHT22;18385;51.572;6.578;2024-03-08T14:58:46;23.50;39.80
31677;DHT22;18385;51.572;6.578;2024-03-08T15:01:15;22.50;38.50
31677;DHT22;18385;51.572;6.578;2024-03-08T15:03:44;22.20;39.30
31677;DHT22;18385;51.572;6.578;2024-03-08T15:06:10;22.10;39.60
31677;DHT22;18385;51.572;6.578;2024-03-08T15:08:39;22.30;39.80
31677;DHT22;18385;51.572;6.578;2024-03-08T15:11:06;22.60;39.20
31677;DHT22;18385;51.572;6.578;2024-03-08T15:13:32;22.10;37.80
31677;DHT22;18385;51.572;6.578;2024-03-08T15:16:08;21.10;37.20
31677;DHT22;18385;51.572;6.578;2024-03-08T15:18:34;19.90;36.90
31677;DHT22;18385;51.572;6.578;2024-03-08T15:21:04;18.90;37.70
31677;DHT22;18385;51.572;6.578;2024-03-08T15:23:35;18.20;38.40
31677;DHT22;18385;51.572;6.578;2024-03-08T15:26:02;17.70;38.80
31677;DHT22;18385;51.572;6.578;2024-03-08T15:28:29;17.30;39.20
31677;DHT22;18385;51.572;6.578;2024-03-08T15:31:06;16.90;39.30
31677;DHT22;18385;51.572;6.578;2024-03-08T15:33:33;16.70;39.60
31677;DHT22;18385;51.572;6.578;2024-03-08T15:35:59;16.50;39.70
31677;DHT22;18385;51.572;6.578;2024-03-08T15:38:29;16.30;39.70
31677;DHT22;18385;51.572;6.578;2024-03-08T15:40:55;16.10;39.90
31677;DHT22;18385;51.572;6.578;2024-03-08T15:43:21;16.00;40.00
31677;DHT22;18385;51.572;6.578;2024-03-08T15:45:48;15.80;40.00
31677;DHT22;18385;51.572;6.578;2024-03-08T15:48:13;15.70;40.10
31677;DHT22;18385;51.572;6.578;2024-03-08T15:50:39;15.60;40.20
31677;DHT22;18385;51.572;6.578;2024-03-08T15:53:06;15.60;40.30